createdAt,value
2022-11-15T00:04:57.754Z,987.4
2022-11-15T00:10:17.511Z,987.3
2022-11-15T00:15:35.776Z,987.3
2022-11-15T00:20:55.006Z,987.2
2022-11-15T00:26:14.768Z,987.2
2022-11-15T00:31:34.337Z,987.1
2022-11-15T00:36:53.544Z,987.2
2022-11-15T00:42:13.046Z,987.2
2022-11-15T00:47:32.374Z,987.1
2022-11-15T00:52:51.494Z,987.2
2022-11-15T00:58:10.757Z,987.1
2022-11-15T01:03:29.998Z,987.1
2022-11-15T01:08:49.211Z,987
2022-11-15T01:14:08.845Z,987
2022-11-15T01:19:27.858Z,986.9
2022-11-15T01:24:46.430Z,986.8
2022-11-15T01:30:06.096Z,986.8
2022-11-15T01:35:24.922Z,986.9
2022-11-15T01:40:43.956Z,986.8
2022-11-15T01:46:03.126Z,986.8
2022-11-15T01:51:22.388Z,986.7
2022-11-15T01:56:41.153Z,986.7
2022-11-15T02:02:00.574Z,986.7
2022-11-15T02:07:20.224Z,986.7
2022-11-15T02:12:39.380Z,986.7
2022-11-15T02:17:59.536Z,986.5
2022-11-15T02:23:18.667Z,986.6
2022-11-15T02:28:37.017Z,986.4
2022-11-15T02:33:56.986Z,986.3
2022-11-15T02:39:16.347Z,986.3
2022-11-15T02:44:35.578Z,986.3
2022-11-15T02:49:54.833Z,986.3
2022-11-15T02:55:14.560Z,986.3
2022-11-15T03:00:33.270Z,986.2
2022-11-15T03:05:52.227Z,986.2
2022-11-15T03:11:11.330Z,986.2
2022-11-15T03:16:30.994Z,986.3
2022-11-15T03:21:50.875Z,986.2
2022-11-15T03:27:10.010Z,986.3
2022-11-15T03:32:29.537Z,986.2
2022-11-15T03:37:48.568Z,986.2
2022-11-15T03:43:08.038Z,986
2022-11-15T03:48:27.415Z,986
2022-11-15T03:53:46.460Z,985.9
2022-11-15T03:59:06.017Z,985.9
2022-11-15T04:04:25.620Z,985.9
2022-11-15T04:09:45.011Z,985.8
2022-11-15T04:15:04.148Z,985.9
2022-11-15T04:20:23.338Z,985.8
2022-11-15T04:25:42.225Z,985.9
2022-11-15T04:31:01.694Z,985.9
2022-11-15T04:36:21.296Z,986
2022-11-15T04:41:40.702Z,985.8
2022-11-15T04:47:00.343Z,985.8
2022-11-15T04:52:19.554Z,985.8
2022-11-15T04:58:53.741Z,985.8
2022-11-15T05:02:59.060Z,985.8
2022-11-15T05:08:18.009Z,985.8
2022-11-15T05:13:37.302Z,985.7
2022-11-15T05:18:56.802Z,985.6
2022-11-15T05:24:15.605Z,985.4
2022-11-15T05:29:34.824Z,985.5
2022-11-15T05:34:54.347Z,985.3
2022-11-15T05:40:13.968Z,985.3
2022-11-15T05:45:33.037Z,985.4
2022-11-15T05:50:52.779Z,985.4
2022-11-15T05:56:11.830Z,985.2
2022-11-15T06:01:31.475Z,985.4
2022-11-15T06:06:50.994Z,985.3
2022-11-15T06:12:10.126Z,985.4
2022-11-15T06:17:29.214Z,985.4
2022-11-15T06:22:48.759Z,985.4
2022-11-15T06:28:08.265Z,985.4
2022-11-15T06:33:27.647Z,985.4
2022-11-15T06:38:46.596Z,985.4
2022-11-15T06:44:05.729Z,985.4
2022-11-15T06:49:24.824Z,985.3
2022-11-15T06:54:43.934Z,985.5
2022-11-15T07:00:03.559Z,985.5
2022-11-15T07:05:23.351Z,985.4
2022-11-15T07:10:42.960Z,985.5
2022-11-15T07:16:02.013Z,985.4
2022-11-15T07:21:26.312Z,985.4
2022-11-15T07:26:41.157Z,985.4
2022-11-15T07:32:00.514Z,985.3
2022-11-15T07:37:19.526Z,985.3
2022-11-15T07:42:39.141Z,985.2
2022-11-15T07:47:58.339Z,985.3
2022-11-15T07:53:17.926Z,985.2
2022-11-15T07:58:37.392Z,985.2
2022-11-15T08:03:56.285Z,985.1
2022-11-15T08:09:15.882Z,985.1
2022-11-15T08:14:35.768Z,985.1
2022-11-15T08:19:54.415Z,985.1
2022-11-15T08:25:13.662Z,985.1
2022-11-15T08:33:46.701Z,985.1
2022-11-15T08:41:10.817Z,984.9
2022-11-15T08:46:29.601Z,984.9
2022-11-15T08:51:48.508Z,984.8
2022-11-15T08:57:07.861Z,984.8
2022-11-15T09:02:27.377Z,984.8
2022-11-15T09:07:46.492Z,984.7
2022-11-15T09:13:05.217Z,984.6
2022-11-15T09:21:38.286Z,984.6
2022-11-15T09:23:44.097Z,984.6
2022-11-15T09:29:03.383Z,984.6
2022-11-15T09:34:22.230Z,984.5
2022-11-15T09:39:41.047Z,984.5
2022-11-15T09:45:00.046Z,984.4
2022-11-15T09:50:18.703Z,984.4
2022-11-15T09:55:37.172Z,984.3
2022-11-15T10:00:56.053Z,984.3
2022-11-15T10:06:14.767Z,984.3
2022-11-15T10:11:38.464Z,984.2
2022-11-15T10:16:52.839Z,984.1
2022-11-15T10:22:11.597Z,984
2022-11-15T10:27:30.450Z,983.9
2022-11-15T10:32:49.861Z,983.8
2022-11-15T10:38:08.687Z,983.8
2022-11-15T10:43:27.717Z,983.7
2022-11-15T10:48:46.572Z,983.6
2022-11-15T10:54:10.463Z,983.6
2022-11-15T10:59:25.650Z,983.5
2022-11-15T11:04:44.722Z,983.4
2022-11-15T11:10:09.744Z,983.4
2022-11-15T11:15:22.626Z,983.4
2022-11-15T11:20:41.668Z,983.3
2022-11-15T11:26:00.598Z,983.2
2022-11-15T11:31:19.347Z,983.2
2022-11-15T11:36:38.824Z,983.2
2022-11-15T11:41:58.223Z,983.2
2022-11-15T11:47:17.264Z,983.2
2022-11-15T11:52:36.279Z,983.1
2022-11-15T11:57:55.183Z,983.1
2022-11-15T12:03:14.228Z,983.1
2022-11-15T12:13:52.141Z,983.1
2022-11-15T12:19:11.339Z,983
2022-11-15T12:24:30.192Z,982.9
2022-11-15T12:29:49.541Z,982.7
2022-11-15T12:36:13.702Z,982.6
2022-11-15T12:40:27.744Z,982.5
2022-11-15T12:45:47.339Z,982.4
2022-11-15T12:51:07.024Z,982.3
2022-11-15T12:56:25.887Z,982.3
2022-11-15T13:01:45.401Z,982.2
2022-11-15T13:07:04.306Z,982.2
2022-11-15T13:12:23.593Z,982.2
2022-11-15T13:17:43.817Z,982.2
2022-11-15T13:23:02.702Z,982.1
2022-11-15T13:28:21.256Z,982.1
2022-11-15T13:33:40.557Z,982
2022-11-15T13:38:59.813Z,982
2022-11-15T13:44:19.500Z,981.9
2022-11-15T13:49:38.827Z,981.8
2022-11-15T13:54:58.309Z,981.8
2022-11-15T14:00:17.174Z,981.8
2022-11-15T14:05:35.957Z,981.8
2022-11-15T14:10:55.317Z,981.6
2022-11-15T14:16:14.188Z,981.5
2022-11-15T14:21:33.557Z,981.4
2022-11-15T14:26:52.347Z,981.3
2022-11-15T14:32:11.875Z,981.4
2022-11-15T14:37:31.355Z,981.4
2022-11-15T14:42:50.948Z,981.3
2022-11-15T14:48:10.007Z,981.2
2022-11-15T14:53:29.192Z,981.2
2022-11-15T14:58:48.880Z,981.1
2022-11-15T15:05:13.164Z,981
2022-11-15T15:09:28.567Z,980.9
2022-11-15T15:14:47.700Z,980.9
2022-11-15T15:20:06.449Z,980.8
2022-11-15T15:25:24.652Z,980.7
2022-11-15T15:30:43.409Z,980.6
2022-11-15T15:36:02.181Z,980.6
2022-11-15T15:41:22.583Z,980.6
2022-11-15T15:46:41.762Z,980.6
2022-11-15T15:52:01.378Z,980.5
2022-11-15T15:57:19.670Z,980.4
2022-11-15T16:02:40.570Z,980.4
2022-11-15T16:07:58.038Z,980.4
2022-11-15T16:13:17.141Z,980.4
2022-11-15T16:18:36.502Z,980.3
2022-11-15T16:23:56.085Z,980.3
2022-11-15T16:29:15.755Z,980.1
2022-11-15T16:34:38.790Z,980.2
2022-11-15T16:40:03.776Z,980.2
2022-11-15T16:40:59.070Z,980.2
2022-11-15T16:45:47.856Z,980
2022-11-15T16:51:06.579Z,980.1
2022-11-15T16:56:26.277Z,980
2022-11-15T17:01:45.047Z,980
2022-11-15T17:07:04.120Z,979.8
2022-11-15T17:12:23.507Z,979.9
2022-11-15T17:17:43.579Z,979.8
2022-11-15T17:23:02.432Z,979.8
2022-11-15T17:28:21.488Z,979.8
2022-11-15T17:33:41.034Z,979.8
2022-11-15T17:39:00.474Z,979.8
2022-11-15T17:44:19.524Z,979.6
2022-11-15T17:49:38.988Z,979.5
2022-11-15T17:55:09.670Z,979.5
2022-11-15T18:00:18.236Z,979.4
2022-11-15T18:05:37.900Z,979.4
2022-11-15T18:10:56.804Z,979.4
2022-11-15T18:16:15.819Z,979.2
2022-11-15T18:21:34.634Z,979.2
2022-11-15T18:26:53.794Z,979.1
2022-11-15T18:32:13.475Z,979
2022-11-15T18:37:32.523Z,979
2022-11-15T18:42:51.833Z,979
2022-11-15T18:48:11.167Z,979.1
2022-11-15T18:53:30.310Z,979
2022-11-15T18:58:49.173Z,979
2022-11-15T19:04:08.704Z,978.9
2022-11-15T19:09:28.431Z,978.8
2022-11-15T19:14:48.200Z,978.8
2022-11-15T19:20:07.448Z,978.8
2022-11-15T19:25:27.009Z,978.7
2022-11-15T19:30:46.623Z,978.7
2022-11-15T19:36:05.586Z,978.6
2022-11-15T19:41:24.527Z,978.5
2022-11-15T19:46:43.804Z,978.6
2022-11-15T19:52:02.635Z,978.5
2022-11-15T19:57:21.662Z,978.5
2022-11-15T20:02:41.239Z,978.6
2022-11-15T20:08:00.771Z,978.5
2022-11-15T20:13:19.711Z,978.5
2022-11-15T20:18:48.233Z,978.5
2022-11-15T20:23:58.270Z,978.5
2022-11-15T20:29:17.410Z,978.5
2022-11-15T20:34:36.725Z,978.4
2022-11-15T20:39:56.042Z,978.4
2022-11-15T20:45:15.203Z,978.4
2022-11-15T20:50:42.908Z,978.3
2022-11-15T20:55:53.480Z,978.2
2022-11-15T21:01:12.704Z,978.1
2022-11-15T21:06:32.331Z,978
2022-11-15T21:12:00.355Z,977.8
2022-11-15T21:17:10.369Z,977.8
2022-11-15T21:22:29.353Z,977.7
2022-11-15T21:27:48.189Z,977.5
2022-11-15T21:33:07.317Z,977.6
2022-11-15T21:38:27.144Z,977.6
2022-11-15T21:43:45.981Z,977.6
2022-11-15T21:49:05.627Z,977.6
2022-11-15T21:54:24.431Z,977.6
2022-11-15T21:59:43.988Z,977.5
2022-11-15T22:05:02.851Z,977.5
2022-11-15T22:10:22.488Z,977.3
2022-11-15T22:15:42.224Z,977.3
2022-11-15T22:21:01.920Z,977.2
2022-11-15T22:26:23.637Z,977.1
2022-11-15T22:31:41.060Z,977
2022-11-15T22:37:18.953Z,977
2022-11-15T22:42:23.588Z,977
2022-11-15T22:47:38.435Z,976.9
2022-11-15T22:52:57.994Z,976.9
2022-11-15T22:58:16.785Z,976.9
2022-11-15T23:03:36.117Z,976.8
2022-11-15T23:08:55.362Z,976.7
2022-11-15T23:14:14.210Z,976.7
2022-11-15T23:19:33.389Z,976.7
2022-11-15T23:24:53.017Z,976.7
2022-11-15T23:30:12.510Z,976.7
2022-11-15T23:35:31.399Z,976.7
2022-11-15T23:40:50.929Z,976.6
2022-11-15T23:46:18.063Z,976.7
2022-11-15T23:51:28.955Z,976.7
2022-11-15T23:56:57.361Z,976.6
